METAR Data
IDs: Format: Raw Decoded Include TAF

Data at: 0117 UTC 23 Apr 2021

EDDH 230050Z 29009KT 9999 FEW020 05/02 Q1023 NOSIG
EDDH 230020Z 29010KT 9999 FEW032 06/03 Q1023 NOSIG
EDDH 222350Z 30011KT 9999 FEW020 06/03 Q1023 NOSIG
EDDH 222320Z 30010KT 9999 SCT018 06/03 Q1024 NOSIG
EDDH 222250Z 30010KT 9999 SCT016 05/03 Q1023 NOSIG
EDDH 222220Z 29009KT 9999 FEW016 05/03 Q1023 NOSIG
EDDH 222150Z 29011KT 9999 FEW020 05/03 Q1023 NOSIG
EDDH 222120Z 29010KT 9999 FEW020 06/02 Q1023 NOSIG
EDDH 222050Z 29011KT 9999 FEW020 06/02 Q1023 NOSIG
EDDH 222020Z 29011KT 9999 FEW021 06/03 Q1023 NOSIG
EDDH 221950Z 30013KT 9999 FEW021 06/03 Q1023 NOSIG
EDDH 221920Z 30015KT 9999 FEW021 07/03 Q1023 NOSIG
EDDH 221850Z 29013KT 9999 FEW021 07/03 Q1023 NOSIG
EDDH 221820Z 29012KT 9999 FEW022 07/03 Q1023 TEMPO 30015G25KT
EDDH 221750Z 30017KT 9999 FEW022 08/03 Q1022 TEMPO 30020G30KT
EDDH 221720Z 30015KT 9999 FEW026 SCT033 08/02 Q1022 TEMPO 30020G30KT
EDDH 221650Z 30018G28KT 270V330 9999 FEW030 SCT037 09/03 Q1022 NOSIG
EDDH 221620Z 31018KT 9999 FEW030 BKN037 09/02 Q1022 NOSIG
EDDH 221550Z 30018G28KT 9999 FEW030 BKN037 09/02 Q1022 NOSIG
EDDH 221520Z 31020KT 9999 SCT034 BKN048 09/02 Q1022 TEMPO 30020G30KT
EDDH 221450Z 31020G30KT 9999 BKN034 SCT048 09/01 Q1022 TEMPO 30020G30KT
EDDH 221420Z 31017KT 9999 FEW030 BKN036 09/02 Q1022 TEMPO 30020G30KT
EDDH 221350Z 30017KT 270V330 9999 FEW030 BKN036 09/01 Q1021 TEMPO 30020G30KT
EDDH 221320Z 31016KT 9999 SCT031 BKN044 10/02 Q1021 TEMPO 30020G30KT
EDDH 221250Z 30014KT 9999 -SHRA SCT031 BKN044 09/02 Q1021 TEMPO 30020G30KT
EDDH 221220Z 30017G27KT 9999 SCT031 BKN044 09/01 Q1021 NOSIG
EDDH 221150Z 30019KT 9999 SCT034 BKN044 09/01 Q1021 TEMPO 30020G30KT
EDDH 221120Z 30015KT 9999 BKN037 SCT048 09/01 Q1020 TEMPO 30020G30KT
EDDH 221050Z 30018G28KT 270V330 9999 SCT037 BKN048 10/00 Q1020 NOSIG
EDDH 221020Z 29018KT 270V330 9999 SCT035 SCT048 09/01 Q1020 TEMPO 30020G30KT
EDDH 220950Z 30018KT 9999 FEW028 SCT039 09/00 Q1020 TEMPO 30020G30KT
EDDH 220920Z 30017KT 9999 FEW028 SCT038 09/M00 Q1020 TEMPO 30020G30KT
EDDH 220850Z 29017KT 270V340 9999 FEW027 SCT033 08/00 Q1020 TEMPO 30020G30KT
EDDH 220820Z 31015KT 9999 FEW028 BKN039 08/01 Q1020 TEMPO 30020G30KT
EDDH 220750Z 31019KT 9999 FEW026 SCT038 08/00 Q1020 TEMPO 30020G30KT
EDDH 220720Z 30018KT 260V320 9999 FEW024 BKN036 08/01 Q1019 TEMPO 30015G25KT
EDDH 220650Z 30013KT 9999 SCT024 BKN035 07/01 Q1019 TEMPO 30015G25KT
EDDH 220620Z 29014KT 260V320 9999 FEW024 BKN037 07/01 Q1019 TEMPO 30015G25KT
EDDH 220550Z 29014KT 270V330 9999 FEW024 BKN035 07/01 Q1019 TEMPO 30015G25KT
EDDH 220520Z 30013KT 9999 FEW023 BKN035 06/01 Q1018 TEMPO 30015G25KT
EDDH 220450Z 29014KT 270V330 9999 FEW023 BKN035 06/01 Q1018 TEMPO 30015G25KT
EDDH 220420Z 29014KT 9999 FEW028 BKN035 06/01 Q1018 NOSIG
EDDH 220350Z 29012KT 270V330 9999 BKN035 06/M00 Q1018 NOSIG
EDDH 220320Z 28013KT 9999 BKN038 06/M00 Q1018 NOSIG
EDDH 220250Z 29014KT 9999 BKN038 06/M01 Q1018 NOSIG
EDDH 220220Z 29013KT 260V320 9999 BKN035 06/M00 Q1018 NOSIG
EDDH 220150Z 28012KT 9999 BKN040 06/M00 Q1018 NOSIG
EDDH 220120Z 29015KT 9999 FEW043 06/M00 Q1018 NOSIG
EDDH 220050Z 29012KT 9999 FEW028 05/M00 Q1018 NOSIG
EDDH 220020Z 29013KT 260V320 9999 FEW028 05/00 Q1018 NOSIG
EDDH 212350Z 30012G22KT 9999 FEW028 05/00 Q1017 NOSIG
EDDH 212320Z 30009KT 9999 FEW035 05/M00 Q1018 NOSIG
EDDH 212250Z 30012KT 9999 FEW042 05/M01 Q1017 NOSIG
EDDH 212220Z 29011KT 9999 FEW044 05/M01 Q1017 NOSIG
EDDH 212150Z 29009KT 9999 FEW045 05/M01 Q1017 NOSIG
EDDH 212120Z 29012KT 9999 FEW039 05/M01 Q1017 NOSIG
EDDH 212050Z 29012KT 9999 FEW042 05/M01 Q1017 NOSIG
EDDH 212020Z 29010KT 9999 FEW042 05/M01 Q1017 NOSIG
EDDH 211950Z 29011KT 9999 FEW040 05/M01 Q1017 NOSIG
EDDH 211920Z 29012KT 9999 SCT040 06/M02 Q1017 TEMPO 30015G25KT
EDDH 211850Z 30013KT 270V340 9999 FEW035 SCT040 07/M02 Q1017 TEMPO 30015G25KT
EDDH 211820Z 30016KT 9999 FEW035 SCT040 07/M01 Q1017 TEMPO 30015G25KT
EDDH 211750Z 30016KT 9999 SCT040 08/M01 Q1017 TEMPO 31015G25KT
EDDH 211720Z 30015KT 9999 SCT037 08/M00 Q1017 TEMPO 31020G30KT
EDDH 211650Z 31019KT 9999 BKN039 08/M01 Q1016 TEMPO 32020G30KT
EDDH 211620Z 29016KT 270V330 9999 FEW043 09/M01 Q1016 TEMPO 30020G30KT
EDDH 211550Z 31019KT 9999 FEW042 10/M01 Q1016 TEMPO 32020G30KT
EDDH 211520Z 29017KT 9999 SCT038 10/00 Q1016 TEMPO 30020G30KT
EDDH 211450Z 28017KT 9999 FEW039 11/01 Q1016 TEMPO 29020G30KT
EDDH 211420Z 29018KT 250V330 9999 FEW038 10/01 Q1016 TEMPO 30020G30KT
EDDH 211350Z 28015G27KT 250V310 9999 FEW039 10/00 Q1016 NOSIG
EDDH 211320Z 29017G27KT 250V340 9999 FEW041 11/01 Q1016 NOSIG